createdAt,value
2018-07-04T00:01:05.605Z,24.49
2018-07-04T00:03:45.415Z,24.45
2018-07-04T00:06:25.973Z,24.41
2018-07-04T00:09:06.663Z,24.40
2018-07-04T00:11:46.653Z,24.36
2018-07-04T00:14:27.352Z,24.35
2018-07-04T00:17:07.313Z,24.35
2018-07-04T00:19:47.343Z,24.36
2018-07-04T00:22:27.349Z,24.35
2018-07-04T00:25:07.192Z,24.33
2018-07-04T00:27:47.130Z,24.32
2018-07-04T00:30:27.184Z,24.30
2018-07-04T00:33:06.944Z,24.31
2018-07-04T00:35:47.146Z,24.30
2018-07-04T00:38:27.075Z,24.30
2018-07-04T00:41:06.966Z,24.29
2018-07-04T00:43:47.010Z,24.27
2018-07-04T00:46:27.069Z,24.26
2018-07-04T00:49:06.864Z,24.24
2018-07-04T00:51:46.988Z,24.23
2018-07-04T00:54:26.817Z,24.20
2018-07-04T00:57:06.812Z,24.18
2018-07-04T00:59:46.665Z,24.16
2018-07-04T01:02:27.213Z,24.10
2018-07-04T01:05:07.080Z,24.09
2018-07-04T01:07:46.985Z,24.05
2018-07-04T01:10:26.826Z,24.04
2018-07-04T01:13:07.214Z,24.05
2018-07-04T01:15:47.228Z,24.05
2018-07-04T01:18:28.005Z,24.03
2018-07-04T01:21:13.428Z,24.01
2018-07-04T01:23:54.324Z,23.94
2018-07-04T01:26:35.174Z,23.91
2018-07-04T01:29:15.080Z,23.90
2018-07-04T01:31:55.097Z,23.89
2018-07-04T01:34:35.220Z,23.89
2018-07-04T01:37:14.926Z,23.88
2018-07-04T01:39:54.724Z,23.87
2018-07-04T01:42:34.637Z,23.86
2018-07-04T01:45:15.192Z,23.84
2018-07-04T01:47:55.198Z,23.82
2018-07-04T01:50:36.259Z,23.83
2018-07-04T01:53:17.058Z,23.81
2018-07-04T01:55:57.172Z,23.79
2018-07-04T01:58:37.081Z,23.78
2018-07-04T02:01:17.113Z,23.78
2018-07-04T02:03:56.994Z,23.77
2018-07-04T02:06:36.868Z,23.78
2018-07-04T02:09:17.344Z,23.75
2018-07-04T02:11:57.293Z,23.75
2018-07-04T02:14:37.104Z,23.73
2018-07-04T02:17:17.052Z,23.70
2018-07-04T02:19:56.839Z,23.66
2018-07-04T02:22:37.003Z,23.58
2018-07-04T02:25:16.766Z,23.50
2018-07-04T02:27:57.140Z,23.44
2018-07-04T02:30:36.964Z,23.37
2018-07-04T02:33:16.836Z,23.30
2018-07-04T02:35:56.818Z,23.23
2018-07-04T02:38:36.751Z,23.14
2018-07-04T02:41:17.269Z,23.09
2018-07-04T02:43:57.265Z,23.02
2018-07-04T02:46:39.804Z,22.97
2018-07-04T02:49:21.131Z,22.89
2018-07-04T02:52:00.953Z,22.82
2018-07-04T02:54:41.002Z,22.79
2018-07-04T02:57:21.127Z,22.78
2018-07-04T03:00:01.162Z,22.75
2018-07-04T03:02:41.090Z,22.73
2018-07-04T03:05:21.088Z,22.71
2018-07-04T03:08:00.831Z,22.70
2018-07-04T03:10:41.422Z,22.69
2018-07-04T03:13:21.401Z,22.69
2018-07-04T03:16:01.561Z,22.67
2018-07-04T03:18:41.360Z,22.63
2018-07-04T03:21:21.456Z,22.61
2018-07-04T03:24:01.308Z,22.61
2018-07-04T03:26:41.012Z,22.65
2018-07-04T03:29:21.006Z,22.63
2018-07-04T03:32:00.988Z,22.67
2018-07-04T03:34:40.929Z,22.70
2018-07-04T03:37:21.266Z,22.74
2018-07-04T03:40:01.202Z,22.74
2018-07-04T03:42:41.462Z,22.77
2018-07-04T03:45:22.195Z,22.73
2018-07-04T03:48:03.084Z,22.72
2018-07-04T03:50:42.998Z,22.77
2018-07-04T03:53:23.370Z,22.87
2018-07-04T03:56:03.148Z,22.94
2018-07-04T03:58:43.009Z,22.99
2018-07-04T04:01:22.819Z,23.01
2018-07-04T04:04:02.887Z,23.06
2018-07-04T04:06:42.694Z,23.12
2018-07-04T04:09:22.676Z,23.14
2018-07-04T04:12:02.555Z,23.19
2018-07-04T04:14:42.380Z,23.24
2018-07-04T04:17:22.284Z,23.36
2018-07-04T04:20:02.138Z,23.48
2018-07-04T04:22:42.084Z,23.57
2018-07-04T04:25:22.065Z,23.69
2018-07-04T04:28:02.076Z,23.82
2018-07-04T04:30:42.921Z,23.92
2018-07-04T04:33:22.817Z,24.00
2018-07-04T04:36:03.080Z,24.01
2018-07-04T04:38:43.474Z,24.04
2018-07-04T04:41:23.541Z,24.07
2018-07-04T04:44:03.558Z,24.12
2018-07-04T04:46:43.407Z,24.19
2018-07-04T04:49:23.880Z,24.31
2018-07-04T04:52:03.871Z,24.42
2018-07-04T04:54:43.971Z,24.54
2018-07-04T04:57:23.786Z,24.67
2018-07-04T05:00:04.204Z,24.80
2018-07-04T05:02:44.155Z,24.94
2018-07-04T05:05:24.047Z,25.08
2018-07-04T05:08:04.280Z,25.27
2018-07-04T05:10:44.308Z,25.44
2018-07-04T05:13:24.200Z,25.61
2018-07-04T05:16:04.196Z,25.75
2018-07-04T05:18:44.037Z,25.96
2018-07-04T05:21:23.868Z,26.20
2018-07-04T05:24:03.920Z,26.43
2018-07-04T05:26:43.783Z,26.62
2018-07-04T05:29:24.776Z,26.76
2018-07-04T05:32:04.794Z,26.76
2018-07-04T05:34:44.664Z,26.83
2018-07-04T05:37:24.531Z,26.90
2018-07-04T05:40:04.584Z,26.99
2018-07-04T05:42:44.746Z,27.09
2018-07-04T05:45:24.499Z,27.13
2018-07-04T05:48:04.537Z,27.22
2018-07-04T05:50:44.470Z,27.37
2018-07-04T05:53:24.100Z,27.45
2018-07-04T05:56:04.260Z,27.43
2018-07-04T05:58:45.225Z,27.40
2018-07-04T06:01:25.763Z,27.40
2018-07-04T06:04:05.490Z,27.46
2018-07-04T06:06:45.920Z,27.05
2018-07-04T06:09:25.815Z,26.71
2018-07-04T06:12:05.611Z,26.42
2018-07-04T06:14:51.047Z,26.19
2018-07-04T06:17:31.034Z,26.06
2018-07-04T06:20:10.876Z,26.05
2018-07-04T06:22:50.936Z,26.11
2018-07-04T06:25:30.728Z,26.19
2018-07-04T06:28:10.489Z,26.39
2018-07-04T06:30:50.451Z,26.59
2018-07-04T06:33:31.088Z,26.95
2018-07-04T06:36:10.956Z,27.19
2018-07-04T06:38:38.561Z,27.37
2018-07-04T06:41:06.064Z,27.54
2018-07-04T06:43:33.590Z,27.63
2018-07-04T06:46:01.252Z,27.73
2018-07-04T06:48:28.708Z,27.99
2018-07-04T06:50:56.152Z,28.16
2018-07-04T06:53:23.717Z,28.45
2018-07-04T06:55:51.619Z,28.70
2018-07-04T06:58:19.065Z,28.67
2018-07-04T07:00:47.515Z,28.62
2018-07-04T07:03:27.195Z,28.75
2018-07-04T07:06:07.161Z,28.96
2018-07-04T07:08:47.296Z,29.02
2018-07-04T07:11:27.115Z,29.19
2018-07-04T07:14:06.981Z,29.22
2018-07-04T07:16:47.169Z,29.10
2018-07-04T07:19:27.094Z,29.22
2018-07-04T07:22:07.027Z,29.16
2018-07-04T07:24:46.881Z,29.04
2018-07-04T07:27:26.985Z,29.15
2018-07-04T07:30:06.926Z,29.18
2018-07-04T07:32:46.763Z,29.27
2018-07-04T07:35:26.658Z,29.36
2018-07-04T07:38:07.680Z,29.06
2018-07-04T07:40:47.607Z,29.04
2018-07-04T07:43:27.492Z,28.73
2018-07-04T07:46:07.443Z,28.63
2018-07-04T07:48:47.622Z,29.01
2018-07-04T07:51:27.541Z,29.27
2018-07-04T07:54:07.588Z,29.09
2018-07-04T07:56:47.772Z,29.29
2018-07-04T07:59:29.965Z,29.58
2018-07-04T08:02:10.027Z,29.76
2018-07-04T08:04:50.073Z,29.88
2018-07-04T08:07:30.057Z,29.92
2018-07-04T08:10:10.122Z,29.92
2018-07-04T08:12:49.868Z,29.93
2018-07-04T08:15:29.848Z,30.06
2018-07-04T08:18:09.625Z,30.10
2018-07-04T08:20:49.744Z,30.09
2018-07-04T08:23:29.601Z,30.18
2018-07-04T08:26:09.471Z,30.19
2018-07-04T08:28:49.839Z,30.24
2018-07-04T08:31:30.596Z,30.26
2018-07-04T08:34:10.387Z,30.18
2018-07-04T08:36:50.649Z,30.25
2018-07-04T08:39:30.489Z,30.43
2018-07-04T08:42:10.680Z,30.65
2018-07-04T08:44:50.416Z,30.89
2018-07-04T08:47:30.312Z,31.04
2018-07-04T08:50:10.317Z,31.11
2018-07-04T08:52:50.282Z,31.27
2018-07-04T08:55:30.149Z,31.60
2018-07-04T08:58:10.018Z,31.89
2018-07-04T09:00:50.023Z,32.12
2018-07-04T09:03:30.041Z,32.52
2018-07-04T09:06:09.916Z,32.73
2018-07-04T09:08:49.952Z,32.84
2018-07-04T09:11:29.914Z,32.89
2018-07-04T09:14:10.001Z,32.89
2018-07-04T09:16:49.926Z,32.95
2018-07-04T09:19:29.978Z,33.00
2018-07-04T09:22:09.828Z,32.86
2018-07-04T09:24:50.729Z,32.80
2018-07-04T09:27:30.591Z,32.98
2018-07-04T09:30:10.792Z,33.02
2018-07-04T09:32:50.708Z,32.74
2018-07-04T09:35:30.660Z,32.44
2018-07-04T09:38:10.541Z,31.55
2018-07-04T09:40:50.483Z,31.22
2018-07-04T09:43:35.008Z,31.39
2018-07-04T09:46:15.471Z,31.64
2018-07-04T09:48:55.475Z,31.46
2018-07-04T09:51:35.435Z,31.51
2018-07-04T09:54:15.276Z,31.87
2018-07-04T09:56:55.363Z,32.00
2018-07-04T09:59:35.627Z,32.23
2018-07-04T10:02:15.844Z,32.50
2018-07-04T10:04:55.794Z,32.52
2018-07-04T10:07:35.693Z,32.65
2018-07-04T10:10:15.512Z,32.48
2018-07-04T10:12:55.423Z,32.38
2018-07-04T10:15:36.774Z,32.25
2018-07-04T10:18:16.838Z,32.04
2018-07-04T10:20:56.769Z,31.82
2018-07-04T10:23:36.664Z,31.80
2018-07-04T10:26:16.533Z,32.03
2018-07-04T10:28:56.354Z,32.13
2018-07-04T10:31:36.232Z,32.17
2018-07-04T10:34:16.170Z,32.25
2018-07-04T10:36:55.905Z,32.18
2018-07-04T10:39:35.833Z,32.29
2018-07-04T10:42:15.600Z,32.21
2018-07-04T10:44:55.575Z,32.07
2018-07-04T10:47:35.369Z,32.23
2018-07-04T10:50:15.298Z,32.56
2018-07-04T10:52:55.189Z,32.69
2018-07-04T10:55:35.189Z,32.68
2018-07-04T10:58:15.153Z,32.56
2018-07-04T11:00:55.192Z,32.25
2018-07-04T11:03:34.980Z,32.14
2018-07-04T11:06:15.019Z,32.29
2018-07-04T11:08:56.479Z,32.57
2018-07-04T11:11:36.555Z,32.82
2018-07-04T11:14:16.351Z,32.98
2018-07-04T11:16:56.518Z,33.30
2018-07-04T11:19:36.832Z,33.50
2018-07-04T11:22:17.349Z,33.58
2018-07-04T11:24:57.479Z,33.86
2018-07-04T11:27:37.621Z,34.09
2018-07-04T11:30:17.686Z,33.96
2018-07-04T11:32:59.631Z,33.46
2018-07-04T11:35:40.328Z,33.32
2018-07-04T11:38:21.166Z,33.23
2018-07-04T11:41:01.940Z,33.25
2018-07-04T11:43:41.853Z,33.13
2018-07-04T11:46:09.343Z,33.23
2018-07-04T11:48:36.896Z,33.34
2018-07-04T11:51:04.410Z,33.42
2018-07-04T11:53:31.954Z,33.63
2018-07-04T11:55:59.431Z,33.63
2018-07-04T11:58:27.025Z,33.59
2018-07-04T12:00:54.504Z,33.61
2018-07-04T12:03:23.790Z,33.73
2018-07-04T12:06:03.868Z,33.77
2018-07-04T12:08:32.085Z,33.77
2018-07-04T12:10:59.643Z,33.69
2018-07-04T12:13:28.071Z,33.72
2018-07-04T12:15:55.520Z,33.86
2018-07-04T12:18:23.709Z,34.00
2018-07-04T12:20:52.487Z,34.01
2018-07-04T12:23:19.963Z,33.96
2018-07-04T12:25:47.452Z,33.83
2018-07-04T12:28:15.160Z,33.67
2018-07-04T12:30:42.623Z,33.51
2018-07-04T12:33:11.437Z,33.40
2018-07-04T12:35:39.980Z,33.17
2018-07-04T12:38:07.415Z,32.82
2018-07-04T12:40:34.899Z,32.51
2018-07-04T12:43:02.474Z,32.38
